createdAt,value
2018-06-09T00:01:37.324Z,16.10
2018-06-09T00:04:05.743Z,16.00
2018-06-09T00:06:34.140Z,16.00
2018-06-09T00:09:02.551Z,15.90
2018-06-09T00:11:30.975Z,15.90
2018-06-09T00:13:59.356Z,15.90
2018-06-09T00:16:27.741Z,15.90
2018-06-09T00:18:56.139Z,15.80
2018-06-09T00:21:24.516Z,15.80
2018-06-09T00:23:55.891Z,15.80
2018-06-09T00:26:24.266Z,15.70
2018-06-09T00:28:52.661Z,15.70
2018-06-09T00:31:21.032Z,15.70
2018-06-09T00:33:49.431Z,15.70
2018-06-09T00:36:17.815Z,15.70
2018-06-09T00:38:46.206Z,15.70
2018-06-09T00:41:14.587Z,15.70
2018-06-09T00:43:42.979Z,15.80
2018-06-09T00:46:11.358Z,15.80
2018-06-09T00:48:39.755Z,15.90
2018-06-09T00:51:08.140Z,15.80
2018-06-09T00:53:36.540Z,15.70
2018-06-09T00:56:16.361Z,15.60
2018-06-09T00:58:44.748Z,15.60
2018-06-09T01:01:13.139Z,15.50
2018-06-09T01:03:41.524Z,15.50
2018-06-09T01:06:09.917Z,15.50
2018-06-09T01:08:38.297Z,15.50
2018-06-09T01:11:06.697Z,15.50
2018-06-09T01:13:35.070Z,15.50
2018-06-09T01:16:03.497Z,15.50
2018-06-09T01:18:31.871Z,15.50
2018-06-09T01:23:28.355Z,15.50
2018-06-09T01:25:56.764Z,15.40
2018-06-09T01:28:25.154Z,15.40
2018-06-09T01:30:53.573Z,15.40
2018-06-09T01:33:21.961Z,15.40
2018-06-09T01:35:51.169Z,15.40
2018-06-09T01:38:19.555Z,15.40
2018-06-09T01:40:47.947Z,15.40
2018-06-09T01:43:16.323Z,15.30
2018-06-09T01:45:44.722Z,15.30
2018-06-09T01:48:13.099Z,15.30
2018-06-09T01:50:41.518Z,15.30
2018-06-09T01:53:09.908Z,15.30
2018-06-09T01:55:38.291Z,15.30
2018-06-09T01:58:06.692Z,15.30
2018-06-09T02:00:35.094Z,15.40
2018-06-09T02:03:03.482Z,15.30
2018-06-09T02:05:31.861Z,15.30
2018-06-09T02:08:00.265Z,15.40
2018-06-09T02:10:28.650Z,15.30
2018-06-09T02:12:57.061Z,15.20
2018-06-09T02:15:25.431Z,15.10
2018-06-09T02:17:53.832Z,15.10
2018-06-09T02:20:22.204Z,14.90
2018-06-09T02:22:50.591Z,14.90
2018-06-09T02:25:18.959Z,14.90
2018-06-09T02:27:47.364Z,14.90
2018-06-09T02:30:15.745Z,15.00
2018-06-09T02:32:44.154Z,15.00
2018-06-09T02:35:12.544Z,15.10
2018-06-09T02:37:40.952Z,15.10
2018-06-09T02:40:09.345Z,15.10
2018-06-09T02:42:37.752Z,15.20
2018-06-09T02:45:06.138Z,15.20
2018-06-09T02:47:34.507Z,15.20
2018-06-09T02:50:02.912Z,15.20
2018-06-09T02:52:31.292Z,15.10
2018-06-09T02:54:59.694Z,15.10
2018-06-09T02:57:28.085Z,15.10
2018-06-09T02:59:56.500Z,15.00
2018-06-09T03:02:24.881Z,15.10
2018-06-09T03:04:53.287Z,15.00
2018-06-09T03:07:21.659Z,15.00
2018-06-09T03:12:18.176Z,15.00
2018-06-09T03:14:46.568Z,15.10
2018-06-09T03:17:14.953Z,15.10
2018-06-09T03:19:43.355Z,15.10
2018-06-09T03:22:11.732Z,15.20
2018-06-09T03:24:40.142Z,15.20
2018-06-09T03:27:08.520Z,15.20
2018-06-09T03:29:36.907Z,15.20
2018-06-09T03:32:05.331Z,15.20
2018-06-09T03:34:33.715Z,15.30
2018-06-09T03:37:02.112Z,15.30
2018-06-09T03:39:30.500Z,15.40
2018-06-09T03:41:58.912Z,15.50
2018-06-09T03:44:27.288Z,15.60
2018-06-09T03:46:55.688Z,15.70
2018-06-09T03:49:24.076Z,15.80
2018-06-09T03:51:52.471Z,15.90
2018-06-09T03:54:20.884Z,16.10
2018-06-09T03:56:49.331Z,16.30
2018-06-09T03:59:17.755Z,16.50
2018-06-09T04:01:46.225Z,16.50
2018-06-09T04:04:14.647Z,16.70
2018-06-09T04:06:43.096Z,16.80
2018-06-09T04:09:11.521Z,16.90
2018-06-09T04:11:39.948Z,17.10
2018-06-09T04:14:08.381Z,17.30
2018-06-09T04:16:36.861Z,17.60
2018-06-09T04:19:05.308Z,17.80
2018-06-09T04:21:33.745Z,18.10
2018-06-09T04:24:02.197Z,18.30
2018-06-09T04:26:30.619Z,18.50
2018-06-09T04:28:59.071Z,18.60
2018-06-09T04:31:27.507Z,18.70
2018-06-09T04:33:56.007Z,18.80
2018-06-09T04:36:24.391Z,19.00
2018-06-09T04:41:20.955Z,19.30
2018-06-09T04:43:49.415Z,19.30
2018-06-09T04:46:17.848Z,19.50
2018-06-09T04:48:46.301Z,19.80
2018-06-09T04:51:14.729Z,20.10
2018-06-09T04:53:43.188Z,20.30
2018-06-09T04:56:11.712Z,20.60
2018-06-09T04:58:40.165Z,21.10
2018-06-09T05:01:08.618Z,21.50
2018-06-09T05:03:37.035Z,22.00
2018-06-09T05:06:05.488Z,22.50
2018-06-09T05:08:33.895Z,23.10
2018-06-09T05:11:02.344Z,23.70
2018-06-09T05:13:30.761Z,24.30
2018-06-09T05:18:33.937Z,25.50
2018-06-09T05:21:02.370Z,26.10
2018-06-09T05:23:30.772Z,26.60
2018-06-09T05:25:59.210Z,27.00
2018-06-09T05:28:27.624Z,27.40
2018-06-09T05:30:56.065Z,27.90
2018-06-09T05:33:24.508Z,28.80
2018-06-09T05:35:52.971Z,29.90
2018-06-09T05:38:21.418Z,30.60
2018-06-09T05:40:49.853Z,30.30
2018-06-09T05:43:18.272Z,30.40
2018-06-09T05:45:46.720Z,30.90
2018-06-09T05:50:43.282Z,31.00
2018-06-09T05:53:11.732Z,31.40
2018-06-09T05:55:40.826Z,31.50
2018-06-09T05:58:09.228Z,31.70
2018-06-09T06:00:37.673Z,32.20
2018-06-09T06:03:09.398Z,32.50
2018-06-09T06:05:37.763Z,32.30
2018-06-09T06:08:06.201Z,32.00
2018-06-09T06:10:34.665Z,31.70
2018-06-09T06:13:03.245Z,32.00
2018-06-09T06:15:31.689Z,32.20
2018-06-09T06:18:00.144Z,32.20
2018-06-09T06:20:28.584Z,32.20
2018-06-09T06:22:57.055Z,32.20
2018-06-09T06:25:25.489Z,32.10
2018-06-09T06:27:53.932Z,32.10
2018-06-09T06:30:22.363Z,32.00
2018-06-09T06:32:50.824Z,32.10
2018-06-09T06:35:19.273Z,32.10
2018-06-09T06:37:47.748Z,32.00
2018-06-09T06:40:16.199Z,32.00
2018-06-09T06:42:44.625Z,32.10
2018-06-09T06:45:13.096Z,32.40
2018-06-09T06:47:41.543Z,32.60
2018-06-09T06:50:11.964Z,33.10
2018-06-09T06:52:40.399Z,33.10
2018-06-09T06:55:08.849Z,33.00
2018-06-09T06:57:37.338Z,32.70
2018-06-09T07:00:06.469Z,32.80
2018-06-09T07:02:34.905Z,33.00
2018-06-09T07:05:03.368Z,33.00
2018-06-09T07:07:31.803Z,33.10
2018-06-09T07:12:28.368Z,34.00
2018-06-09T07:14:56.815Z,34.30
2018-06-09T07:17:25.248Z,34.60
2018-06-09T07:19:53.708Z,34.60
2018-06-09T07:22:22.141Z,34.60
2018-06-09T07:24:50.582Z,34.60
2018-06-09T07:27:19.004Z,34.20
2018-06-09T07:29:47.456Z,34.00
2018-06-09T07:32:15.892Z,33.70
2018-06-09T07:34:44.326Z,33.60
2018-06-09T07:37:12.763Z,33.50
2018-06-09T07:39:41.185Z,33.20
2018-06-09T07:42:09.631Z,33.20
2018-06-09T07:44:38.067Z,33.30
2018-06-09T07:47:06.509Z,33.40
2018-06-09T07:49:34.978Z,33.50
2018-06-09T07:52:16.919Z,33.50
2018-06-09T07:54:45.456Z,33.20
2018-06-09T07:57:13.962Z,32.80
2018-06-09T07:59:42.417Z,32.50
2018-06-09T08:02:10.864Z,32.30
2018-06-09T08:04:39.296Z,32.20
2018-06-09T08:07:07.749Z,32.30
2018-06-09T08:09:36.192Z,32.50
2018-06-09T08:12:04.659Z,32.60
2018-06-09T08:14:33.089Z,33.00
2018-06-09T08:17:01.608Z,33.50
2018-06-09T08:21:58.312Z,34.70
2018-06-09T08:24:26.749Z,35.10
2018-06-09T08:26:55.220Z,35.50
2018-06-09T08:29:23.655Z,35.70
2018-06-09T08:31:52.099Z,35.70
2018-06-09T08:34:20.524Z,35.50
2018-06-09T08:36:48.959Z,35.40
2018-06-09T08:39:17.761Z,35.10
2018-06-09T08:41:47.245Z,35.00
2018-06-09T08:44:15.689Z,34.90
2018-06-09T08:46:44.117Z,35.00
2018-06-09T08:49:12.617Z,35.00
2018-06-09T08:51:41.323Z,34.90
2018-06-09T08:54:27.341Z,35.00
2018-06-09T08:56:55.875Z,35.50
2018-06-09T08:59:24.293Z,35.80
2018-06-09T09:01:52.735Z,35.80
2018-06-09T09:04:21.175Z,35.80
2018-06-09T09:06:49.671Z,35.60
2018-06-09T09:09:18.257Z,35.40
2018-06-09T09:11:48.325Z,35.50
2018-06-09T09:14:16.783Z,35.80
2018-06-09T09:16:45.218Z,36.20
2018-06-09T09:19:13.670Z,36.60
2018-06-09T09:21:42.110Z,36.70
2018-06-09T09:24:10.591Z,36.90
2018-06-09T09:26:39.041Z,37.10
2018-06-09T09:29:07.491Z,37.30
2018-06-09T09:31:35.920Z,36.90
2018-06-09T09:34:08.885Z,36.20
2018-06-09T09:36:37.559Z,35.40
2018-06-09T09:39:08.336Z,35.00
2018-06-09T09:41:41.833Z,34.80
2018-06-09T09:44:10.349Z,34.70
2018-06-09T09:46:38.800Z,34.40
2018-06-09T09:49:07.223Z,34.70
2018-06-09T09:51:35.668Z,35.10
2018-06-09T09:54:10.627Z,35.30
2018-06-09T09:56:39.125Z,35.40
2018-06-09T09:59:07.543Z,35.70
2018-06-09T10:01:36.006Z,36.00
2018-06-09T10:04:04.420Z,36.50
2018-06-09T10:06:32.854Z,36.70
2018-06-09T10:09:01.263Z,36.70
2018-06-09T10:11:29.700Z,36.30
2018-06-09T10:13:58.108Z,36.30
2018-06-09T10:16:26.588Z,36.20
2018-06-09T10:18:54.993Z,36.20
2018-06-09T10:21:23.416Z,36.10
2018-06-09T10:23:51.844Z,35.60
2018-06-09T10:26:20.275Z,35.40
2018-06-09T10:28:48.687Z,35.60
2018-06-09T10:33:45.309Z,36.30
2018-06-09T10:36:16.690Z,36.40
2018-06-09T10:38:45.872Z,36.40
2018-06-09T10:41:14.276Z,36.30
2018-06-09T10:43:42.703Z,36.60
2018-06-09T10:46:11.108Z,36.40
2018-06-09T10:48:39.536Z,36.00
2018-06-09T10:51:07.952Z,36.00
2018-06-09T10:53:36.379Z,36.20
2018-06-09T10:56:04.905Z,36.50
2018-06-09T10:58:33.340Z,36.90
2018-06-09T11:01:01.768Z,37.30
2018-06-09T11:03:30.288Z,37.70
2018-06-09T11:05:58.691Z,37.70
2018-06-09T11:08:27.132Z,37.30
2018-06-09T11:10:55.569Z,36.80
2018-06-09T11:13:23.997Z,37.00
2018-06-09T11:15:52.423Z,37.10
2018-06-09T11:18:20.885Z,37.30
2018-06-09T11:20:49.297Z,37.70
2018-06-09T11:23:17.700Z,38.00
2018-06-09T11:25:46.131Z,38.00
2018-06-09T11:28:14.552Z,38.20
2018-06-09T11:30:42.980Z,38.30
2018-06-09T11:33:11.402Z,38.10
2018-06-09T11:35:39.815Z,37.90
2018-06-09T11:38:08.335Z,38.00
2018-06-09T11:40:36.784Z,38.00
2018-06-09T11:43:05.224Z,36.80
2018-06-09T11:45:33.658Z,36.20
2018-06-09T11:48:02.060Z,36.00
2018-06-09T11:50:30.493Z,35.60
2018-06-09T11:52:58.944Z,35.00
2018-06-09T11:55:27.372Z,35.10
2018-06-09T11:57:57.564Z,35.30
2018-06-09T12:00:26.044Z,35.50
2018-06-09T12:02:54.492Z,35.20
2018-06-09T12:05:22.924Z,34.80
2018-06-09T12:07:51.343Z,34.20
2018-06-09T12:10:19.781Z,34.40
2018-06-09T12:12:51.474Z,35.00
2018-06-09T12:15:20.436Z,34.90
2018-06-09T12:17:48.852Z,35.10
2018-06-09T12:20:17.278Z,35.70
2018-06-09T12:22:45.714Z,36.20
2018-06-09T12:25:14.834Z,36.70
2018-06-09T12:27:43.269Z,37.00
2018-06-09T12:30:11.676Z,37.30
2018-06-09T12:32:40.936Z,37.30
2018-06-09T12:35:09.337Z,37.00
2018-06-09T12:37:37.759Z,36.90
2018-06-09T12:40:06.313Z,36.30
2018-06-09T12:42:34.744Z,35.80
2018-06-09T12:45:03.156Z,35.50
2018-06-09T12:47:31.582Z,35.60
2018-06-09T12:49:59.997Z,35.00
2018-06-09T12:52:28.432Z,34.50
2018-06-09T12:54:56.877Z,34.30
2018-06-09T12:57:25.301Z,34.00
2018-06-09T12:59:53.729Z,34.10
2018-06-09T13:02:22.215Z,34.30
2018-06-09T13:04:50.627Z,34.20
2018-06-09T13:07:19.032Z,34.10
2018-06-09T13:09:47.464Z,34.40
2018-06-09T13:12:15.877Z,34.40
2018-06-09T13:14:44.310Z,34.60
2018-06-09T13:17:12.717Z,34.60
2018-06-09T13:22:09.248Z,34.60
2018-06-09T13:24:37.668Z,34.40
2018-06-09T13:27:06.081Z,34.20
2018-06-09T13:29:34.516Z,34.30
2018-06-09T13:32:02.989Z,34.40
2018-06-09T13:34:31.433Z,34.30
2018-06-09T13:37:02.893Z,34.40
2018-06-09T13:39:31.326Z,34.30
2018-06-09T13:41:59.736Z,34.60
2018-06-09T13:44:28.162Z,34.80
2018-06-09T13:46:56.673Z,34.30
2018-06-09T13:49:25.039Z,34.10
2018-06-09T13:51:53.445Z,34.30
2018-06-09T13:54:21.925Z,34.40
2018-06-09T13:56:50.354Z,34.70
2018-06-09T13:59:18.819Z,34.70
2018-06-09T14:01:47.264Z,34.60
2018-06-09T14:04:15.735Z,34.80
2018-06-09T14:06:44.203Z,35.20
2018-06-09T14:09:12.627Z,35.30
2018-06-09T14:11:41.066Z,35.00
2018-06-09T14:14:09.499Z,34.80
2018-06-09T14:16:37.959Z,34.40
2018-06-09T14:19:06.396Z,34.20
2018-06-09T14:21:34.836Z,33.70
2018-06-09T14:24:03.307Z,33.40
2018-06-09T14:26:31.752Z,33.10
2018-06-09T14:29:00.173Z,33.00
2018-06-09T14:31:28.628Z,32.30
2018-06-09T14:33:57.052Z,31.00
2018-06-09T14:36:25.505Z,29.20
2018-06-09T14:41:22.125Z,26.60
2018-06-09T14:43:50.539Z,26.30
2018-06-09T14:46:18.988Z,25.90
2018-06-09T14:48:47.411Z,25.30
2018-06-09T14:51:15.872Z,23.10
2018-06-09T14:53:44.365Z,20.40
2018-06-09T14:56:12.808Z,19.00
2018-06-09T14:58:41.280Z,18.80
2018-06-09T15:01:09.752Z,18.90
2018-06-09T15:03:38.561Z,19.20
2018-06-09T15:06:06.992Z,19.20
2018-06-09T15:11:03.678Z,19.20
2018-06-09T15:16:00.229Z,19.10
2018-06-09T15:18:28.661Z,19.00
2018-06-09T15:20:57.072Z,19.00
2018-06-09T15:23:25.504Z,19.00
2018-06-09T15:25:53.915Z,18.90
2018-06-09T15:28:22.349Z,18.80
2018-06-09T15:30:50.756Z,18.80
2018-06-09T15:33:19.188Z,18.70
2018-06-09T15:35:47.600Z,18.70
2018-06-09T15:38:16.054Z,18.80
2018-06-09T15:40:44.474Z,18.90
2018-06-09T15:43:12.921Z,18.90
2018-06-09T15:45:41.343Z,19.00
2018-06-09T15:48:09.773Z,18.90
2018-06-09T15:50:38.179Z,18.90
2018-06-09T15:53:06.623Z,18.90
2018-06-09T15:55:35.032Z,19.00
2018-06-09T15:58:03.484Z,19.00
2018-06-09T16:00:31.924Z,19.10
2018-06-09T16:03:00.340Z,19.20
2018-06-09T16:05:28.804Z,19.30
2018-06-09T16:07:57.225Z,19.40
2018-06-09T16:10:25.659Z,19.40
2018-06-09T16:12:54.073Z,19.50
2018-06-09T16:15:22.505Z,19.50
2018-06-09T16:17:50.924Z,19.50
2018-06-09T16:20:26.689Z,19.60
2018-06-09T16:22:55.150Z,19.60
2018-06-09T16:25:23.619Z,19.60
2018-06-09T16:27:52.031Z,19.50
2018-06-09T16:30:20.465Z,19.70
2018-06-09T16:32:48.888Z,19.90
2018-06-09T16:35:17.442Z,19.90
2018-06-09T16:37:45.889Z,20.00
2018-06-09T16:40:14.408Z,20.10
2018-06-09T16:42:43.464Z,20.10
2018-06-09T16:45:12.641Z,20.20
2018-06-09T16:47:41.066Z,20.10
2018-06-09T16:50:09.557Z,20.10
2018-06-09T16:52:38.061Z,20.00
2018-06-09T16:55:06.500Z,19.90
2018-06-09T16:57:35.008Z,19.90
2018-06-09T17:00:03.516Z,19.90
2018-06-09T17:02:31.965Z,19.90
2018-06-09T17:05:00.400Z,19.90
2018-06-09T17:07:28.862Z,19.90
2018-06-09T17:09:57.288Z,19.80
2018-06-09T17:12:25.749Z,19.80
2018-06-09T17:14:54.201Z,19.90
2018-06-09T17:17:22.661Z,19.90
2018-06-09T17:19:51.088Z,19.90
2018-06-09T17:22:19.532Z,20.00
2018-06-09T17:24:47.969Z,20.10
2018-06-09T17:27:16.421Z,20.20
2018-06-09T17:29:44.857Z,20.20
2018-06-09T17:32:13.309Z,20.10
2018-06-09T17:34:41.752Z,20.10
2018-06-09T17:37:10.196Z,20.10
2018-06-09T17:39:38.627Z,20.00
2018-06-09T17:42:07.140Z,20.10
2018-06-09T17:44:35.580Z,20.20
2018-06-09T17:47:04.102Z,20.30
2018-06-09T17:49:32.552Z,20.20
2018-06-09T17:52:00.990Z,20.20
2018-06-09T17:56:57.587Z,20.00
2018-06-09T17:59:26.049Z,19.90
2018-06-09T18:01:55.400Z,19.90
2018-06-09T18:04:23.840Z,19.80
2018-06-09T18:06:52.280Z,19.80
2018-06-09T18:09:20.708Z,19.60
2018-06-09T18:11:49.136Z,19.50
2018-06-09T18:14:17.581Z,19.40
2018-06-09T18:16:46.005Z,19.40
2018-06-09T18:19:14.499Z,19.40
2018-06-09T18:21:42.900Z,19.40
2018-06-09T18:24:11.342Z,19.40
2018-06-09T18:26:39.768Z,19.40
2018-06-09T18:29:08.200Z,19.50
2018-06-09T18:31:36.625Z,19.40
2018-06-09T18:34:05.105Z,19.40
2018-06-09T18:36:33.533Z,19.30
2018-06-09T18:39:01.968Z,19.30
2018-06-09T18:41:30.384Z,19.30
2018-06-09T18:43:58.874Z,19.30
2018-06-09T18:46:27.307Z,19.30
2018-06-09T18:48:55.728Z,19.30
2018-06-09T18:51:24.172Z,19.30
2018-06-09T18:56:20.743Z,19.30
2018-06-09T18:58:49.200Z,19.30
2018-06-09T19:01:17.633Z,19.30
2018-06-09T19:03:46.060Z,19.30
2018-06-09T19:06:14.507Z,19.30
2018-06-09T19:08:42.920Z,19.20
2018-06-09T19:11:11.398Z,19.20
2018-06-09T19:13:39.781Z,19.10
2018-06-09T19:16:08.220Z,19.10
2018-06-09T19:18:36.640Z,19.10
2018-06-09T19:21:05.107Z,19.00
2018-06-09T19:23:33.529Z,19.00
2018-06-09T19:26:01.968Z,19.00
2018-06-09T19:28:30.392Z,19.00
2018-06-09T19:30:58.816Z,18.90
2018-06-09T19:33:27.247Z,18.90
2018-06-09T19:35:55.715Z,18.90
2018-06-09T19:38:24.127Z,18.80
2018-06-09T19:40:52.561Z,18.80
2018-06-09T19:43:20.960Z,18.70
2018-06-09T19:45:49.367Z,18.60
2018-06-09T19:48:17.804Z,18.60
2018-06-09T19:50:46.207Z,18.50
2018-06-09T19:53:14.648Z,18.40
2018-06-09T19:55:43.066Z,18.30
2018-06-09T19:58:11.500Z,18.30
2018-06-09T20:00:39.963Z,18.30
2018-06-09T20:03:08.432Z,18.20
2018-06-09T20:05:36.885Z,18.20
2018-06-09T20:08:05.368Z,18.30
2018-06-09T20:10:33.804Z,18.30
2018-06-09T20:13:03.112Z,18.30
2018-06-09T20:15:31.553Z,18.40
2018-06-09T20:18:00.019Z,18.40
2018-06-09T20:20:28.464Z,18.40
2018-06-09T20:22:56.928Z,18.40
2018-06-09T20:25:25.359Z,18.50
2018-06-09T20:27:53.895Z,18.50
2018-06-09T20:30:22.388Z,18.60
2018-06-09T20:32:50.919Z,18.60
2018-06-09T20:35:19.352Z,18.70
2018-06-09T20:37:47.836Z,18.70
2018-06-09T20:40:16.291Z,18.70
2018-06-09T20:42:44.768Z,18.70
2018-06-09T20:45:13.216Z,18.60
2018-06-09T20:47:41.659Z,18.60
2018-06-09T20:50:10.119Z,18.60
2018-06-09T20:52:38.604Z,18.50
2018-06-09T20:55:07.067Z,18.50
2018-06-09T20:57:35.502Z,18.50
2018-06-09T21:00:04.380Z,18.40
2018-06-09T21:02:32.808Z,18.40
2018-06-09T21:05:01.267Z,18.40
2018-06-09T21:07:29.725Z,18.40
2018-06-09T21:12:26.296Z,18.30
2018-06-09T21:14:54.735Z,18.30
2018-06-09T21:17:23.175Z,18.30
2018-06-09T21:19:51.618Z,18.20
2018-06-09T21:22:20.052Z,18.20
2018-06-09T21:24:48.508Z,18.10
2018-06-09T21:27:22.360Z,18.10
2018-06-09T21:29:50.856Z,18.10
2018-06-09T21:32:24.879Z,18.20
2018-06-09T21:35:06.274Z,18.30
2018-06-09T21:37:35.516Z,18.40
2018-06-09T21:40:05.827Z,18.40
2018-06-09T21:42:35.825Z,18.50
2018-06-09T21:45:08.382Z,18.50
2018-06-09T21:47:36.904Z,18.60
2018-06-09T21:50:05.396Z,18.50
2018-06-09T21:52:33.845Z,18.40
2018-06-09T21:55:02.319Z,18.30
2018-06-09T21:57:30.766Z,18.30
2018-06-09T21:59:59.216Z,18.20
2018-06-09T22:02:27.689Z,18.20
2018-06-09T22:04:56.128Z,18.10
2018-06-09T22:07:24.586Z,18.10
2018-06-09T22:09:53.009Z,18.20
2018-06-09T22:12:21.512Z,18.20
2018-06-09T22:14:49.928Z,18.20
2018-06-09T22:17:18.380Z,18.20
2018-06-09T22:19:46.876Z,18.10
2018-06-09T22:22:15.310Z,18.10
2018-06-09T22:24:43.753Z,18.10
2018-06-09T22:27:12.212Z,18.10
2018-06-09T22:29:40.661Z,18.10
2018-06-09T22:32:09.140Z,18.20
2018-06-09T22:34:37.593Z,18.20
2018-06-09T22:37:06.058Z,18.20
2018-06-09T22:39:34.494Z,18.20
2018-06-09T22:42:02.960Z,18.10
2018-06-09T22:44:31.400Z,18.10
2018-06-09T22:46:59.868Z,18.20
2018-06-09T22:49:28.485Z,18.20
2018-06-09T22:54:25.114Z,18.30
2018-06-09T22:56:53.545Z,18.30
2018-06-09T22:59:22.004Z,18.20
2018-06-09T23:01:50.449Z,18.20
2018-06-09T23:04:18.896Z,18.30
2018-06-09T23:06:47.343Z,18.30
2018-06-09T23:09:15.866Z,18.30
2018-06-09T23:11:44.285Z,18.30
2018-06-09T23:14:12.751Z,18.20
2018-06-09T23:16:41.195Z,18.10
2018-06-09T23:19:09.640Z,18.00
2018-06-09T23:21:38.068Z,18.00
2018-06-09T23:24:09.496Z,18.00
2018-06-09T23:26:37.927Z,18.10
2018-06-09T23:29:06.388Z,18.10
2018-06-09T23:31:34.832Z,18.10
2018-06-09T23:34:03.525Z,18.10
2018-06-09T23:39:00.112Z,18.10
2018-06-09T23:41:28.557Z,18.10
2018-06-09T23:43:57.012Z,18.10
2018-06-09T23:46:25.448Z,18.10
2018-06-09T23:48:53.895Z,18.20
2018-06-09T23:51:22.335Z,18.20
2018-06-09T23:53:50.774Z,18.30
2018-06-09T23:56:19.240Z,18.30
2018-06-09T23:58:47.672Z,18.40
